createdAt,value
2023-02-19T00:00:23.860Z,98713.57
2023-02-19T00:03:52.466Z,98711.91
2023-02-19T00:06:55.246Z,98713.47
2023-02-19T00:09:57.957Z,98709.02
2023-02-19T00:13:00.691Z,98710.87
2023-02-19T00:16:12.711Z,98703.83
2023-02-19T00:19:19.040Z,98702.23
2023-02-19T00:22:21.813Z,98704.90
2023-02-19T00:25:24.578Z,98702.03
2023-02-19T00:28:27.462Z,98698.83
2023-02-19T00:31:33.634Z,98696.92
2023-02-19T00:34:36.618Z,98701.05
2023-02-19T00:37:39.386Z,98702.20
2023-02-19T00:40:42.194Z,98705.36
2023-02-19T00:43:57.134Z,98703.90
2023-02-19T00:46:59.862Z,98702.34
2023-02-19T00:50:02.683Z,98705.69
2023-02-19T00:53:05.455Z,98702.23
2023-02-19T00:56:08.735Z,98695.17
2023-02-19T00:59:12.072Z,98694.11
2023-02-19T01:02:14.874Z,98692.61
2023-02-19T01:05:17.671Z,98684.73
2023-02-19T01:08:21.262Z,98688.32
2023-02-19T01:11:24.159Z,98684.81
2023-02-19T01:14:27.532Z,98683.91
2023-02-19T01:17:30.335Z,98683.58
2023-02-19T01:20:33.036Z,98682.33
2023-02-19T01:23:36.501Z,98681.67
2023-02-19T01:26:40.623Z,98681.58
2023-02-19T01:29:43.667Z,98687.09
2023-02-19T01:32:46.468Z,98691.15
2023-02-19T01:35:49.331Z,98689.08
2023-02-19T01:38:52.365Z,98691.50
2023-02-19T01:41:55.219Z,98687.47
2023-02-19T01:45:22.150Z,98684.55
2023-02-19T01:48:38.104Z,98678.62
2023-02-19T01:52:02.121Z,98676.77
2023-02-19T01:55:11.108Z,98677.25
2023-02-19T01:58:15.683Z,98675.45
2023-02-19T02:01:18.501Z,98676.92
2023-02-19T02:04:21.232Z,98674.52
2023-02-19T02:07:43.039Z,98676.19
2023-02-19T02:10:45.850Z,98677.15
2023-02-19T02:13:49.802Z,98676.83
2023-02-19T02:17:12.762Z,98666.27
2023-02-19T02:20:15.481Z,98659.94
2023-02-19T02:23:30.093Z,98662.70
2023-02-19T02:26:40.091Z,98670.16
2023-02-19T02:30:04.278Z,98666.25
2023-02-19T02:33:25.536Z,98662.12
2023-02-19T02:36:35.843Z,98656.92
2023-02-19T02:39:40.889Z,98664.77
2023-02-19T02:42:44.740Z,98663.71
2023-02-19T02:45:49.270Z,98665.56
2023-02-19T02:49:06.559Z,98661.31
2023-02-19T02:52:29.901Z,98651.81
2023-02-19T02:55:39.308Z,98648.77
2023-02-19T02:58:44.499Z,98654.05
2023-02-19T03:02:14.037Z,98655.23
2023-02-19T03:05:50.710Z,98652.42
2023-02-19T03:08:56.140Z,98647.19
2023-02-19T03:12:21.800Z,98648.89
2023-02-19T03:15:50.964Z,98646.73
2023-02-19T03:19:15.549Z,98641.33
2023-02-19T03:22:25.869Z,98643.23
2023-02-19T03:25:52.399Z,98632.35
2023-02-19T03:29:22.571Z,98624.35
2023-02-19T03:32:35.901Z,98627.11
2023-02-19T03:35:44.912Z,98630.63
2023-02-19T03:38:56.751Z,98620.98
2023-02-19T03:42:13.882Z,98617.08
2023-02-19T03:45:37.806Z,98614.92
2023-02-19T03:49:05.112Z,98617.14
2023-02-19T03:52:50.070Z,98617.83
2023-02-19T03:56:05.726Z,98621.09
2023-02-19T03:59:18.598Z,98618.80
2023-02-19T04:03:04.544Z,98616.91
2023-02-19T04:06:13.896Z,98620.14
2023-02-19T04:09:17.794Z,98613.14
2023-02-19T04:12:24.433Z,98615.67
2023-02-19T04:15:32.243Z,98606.85
2023-02-19T04:18:39.832Z,98604.73
2023-02-19T04:21:45.244Z,98605.14
2023-02-19T04:24:50.277Z,98607.20
2023-02-19T04:27:53.608Z,98609.86
2023-02-19T04:30:56.403Z,98606.85
2023-02-19T04:33:59.204Z,98605.09
2023-02-19T04:37:01.929Z,98602.24
2023-02-19T04:40:05.253Z,98602.98
2023-02-19T04:43:08.107Z,98601.92
2023-02-19T04:46:10.990Z,98593.73
2023-02-19T04:49:13.855Z,98593.71
2023-02-19T04:52:16.878Z,98599.20
2023-02-19T04:55:19.798Z,98594.98
2023-02-19T04:58:22.610Z,98593.63
2023-02-19T05:01:26.075Z,98585.11
2023-02-19T05:04:28.857Z,98580.27
2023-02-19T05:07:31.633Z,98571.52
2023-02-19T05:10:35.030Z,98564.86
2023-02-19T05:13:39.010Z,98558.02
2023-02-19T05:16:41.772Z,98553.86
2023-02-19T05:19:44.496Z,98555.78
2023-02-19T05:22:47.353Z,98553.89
2023-02-19T05:25:50.072Z,98558.06
2023-02-19T05:28:53.943Z,98558.14
2023-02-19T05:31:56.778Z,98559.75
2023-02-19T05:34:59.573Z,98567.64
2023-02-19T05:38:02.278Z,98571.66
2023-02-19T05:41:19.831Z,98575.75
2023-02-19T05:44:22.588Z,98574.92
2023-02-19T05:47:25.335Z,98578.70
2023-02-19T05:50:28.822Z,98590.38
2023-02-19T05:53:32.887Z,98599.76
2023-02-19T05:56:41.054Z,98601.97
2023-02-19T05:59:43.868Z,98608.35
2023-02-19T06:02:47.361Z,98603.25
2023-02-19T06:05:50.303Z,98600.35
2023-02-19T06:08:53.137Z,98594.02
2023-02-19T06:11:55.970Z,98588.55
2023-02-19T06:14:58.716Z,98587.17
2023-02-19T06:18:02.283Z,98579.33
2023-02-19T06:21:06.718Z,98571.20
2023-02-19T06:24:10.265Z,98566.54
2023-02-19T06:27:13.094Z,98571.98
2023-02-19T06:30:16.055Z,98576.85
2023-02-19T06:33:18.821Z,98584.36
2023-02-19T06:36:22.891Z,98586.93
2023-02-19T06:39:26.666Z,98597.33
2023-02-19T06:42:33.107Z,98606.34
2023-02-19T06:45:35.950Z,98617.11
2023-02-19T06:48:39.859Z,98618.10
2023-02-19T06:51:42.909Z,98620.83
2023-02-19T06:54:45.706Z,98614.88
2023-02-19T06:57:48.474Z,98611.01
2023-02-19T07:00:51.612Z,98612.30
2023-02-19T07:03:54.814Z,98608.70
2023-02-19T07:06:57.754Z,98608.27
2023-02-19T07:10:00.536Z,98609.45
2023-02-19T07:13:03.415Z,98606.64
2023-02-19T07:16:09.174Z,98606.60
2023-02-19T07:19:12.173Z,98603.96
2023-02-19T07:22:15.069Z,98606.89
2023-02-19T07:25:18.033Z,98607.62
2023-02-19T07:28:20.798Z,98615.05
2023-02-19T07:31:24.826Z,98616.91
2023-02-19T07:34:27.873Z,98618.58
2023-02-19T07:37:30.585Z,98619.05
2023-02-19T07:40:34.549Z,98617.11
2023-02-19T07:43:38.469Z,98612.91
2023-02-19T07:46:41.251Z,98620.83
2023-02-19T07:49:44.117Z,98617.11
2023-02-19T07:52:47.002Z,98617.78
2023-02-19T07:55:50.401Z,98622.01
2023-02-19T07:58:53.167Z,98624.20
2023-02-19T08:02:14.662Z,98623.95
2023-02-19T08:05:17.517Z,98631.77
2023-02-19T08:08:20.241Z,98636.83
2023-02-19T08:11:41.370Z,98637.00
2023-02-19T08:14:44.460Z,98637.70
2023-02-19T08:17:47.236Z,98637.94
2023-02-19T08:20:50.420Z,98636.59
2023-02-19T08:23:53.256Z,98638.33
2023-02-19T08:26:56.035Z,98644.50
2023-02-19T08:29:59.110Z,98643.54
2023-02-19T08:33:02.595Z,98645.06
2023-02-19T08:36:07.664Z,98646.63
2023-02-19T08:39:10.445Z,98645.16
2023-02-19T08:42:13.307Z,98642.33
2023-02-19T08:45:16.175Z,98644.35
2023-02-19T08:48:18.943Z,98637.91
2023-02-19T08:51:21.740Z,98634.55
2023-02-19T08:54:24.470Z,98627.09
2023-02-19T08:57:29.297Z,98621.90
2023-02-19T09:00:32.229Z,98616.48
2023-02-19T09:03:34.948Z,98620.92
2023-02-19T09:06:40.008Z,98619.30
2023-02-19T09:09:42.982Z,98624.08
2023-02-19T09:12:45.784Z,98625.98
2023-02-19T09:15:48.569Z,98628.80
2023-02-19T09:18:51.383Z,98641.11
2023-02-19T09:21:54.615Z,98648.86
2023-02-19T09:24:57.341Z,98655.27
2023-02-19T09:28:00.103Z,98661.02
2023-02-19T09:31:07.747Z,98658.51
2023-02-19T09:34:11.836Z,98665.51
2023-02-19T09:37:14.603Z,98667.78
2023-02-19T09:40:21.644Z,98670.35
2023-02-19T09:43:27.934Z,98662.02
2023-02-19T09:46:42.147Z,98663.58
2023-02-19T09:49:52.063Z,98665.96
2023-02-19T09:53:03.157Z,98666.39
2023-02-19T09:56:07.336Z,98664.02
2023-02-19T09:59:19.651Z,98662.70
2023-02-19T10:02:24.670Z,98671.50
2023-02-19T10:05:28.305Z,98672.91
2023-02-19T10:08:33.369Z,98665.63
2023-02-19T10:11:36.651Z,98664.95
2023-02-19T10:14:44.862Z,98669.60
2023-02-19T10:17:47.575Z,98677.21
2023-02-19T10:20:52.465Z,98681.93
2023-02-19T10:24:00.715Z,98687.36
2023-02-19T10:27:03.561Z,98696.92
2023-02-19T10:30:14.479Z,98693.45
2023-02-19T10:33:17.391Z,98699.23
2023-02-19T10:36:26.447Z,98701.61
2023-02-19T10:39:43.827Z,98703.34
2023-02-19T10:42:47.982Z,98709.10
2023-02-19T10:45:53.023Z,98708.17
2023-02-19T10:48:59.923Z,98709.92
2023-02-19T10:52:17.814Z,98712.52
2023-02-19T10:55:23.379Z,98722.14
2023-02-19T10:58:30.511Z,98726.81
2023-02-19T11:01:33.280Z,98726.21
2023-02-19T11:04:38.173Z,98729.09
2023-02-19T11:07:51.300Z,98728.00
2023-02-19T11:10:54.558Z,98726.27
2023-02-19T11:13:59.546Z,98734.63
2023-02-19T11:17:05.792Z,98736.58
2023-02-19T11:20:17.662Z,98741.58
2023-02-19T11:23:27.613Z,98745.15
2023-02-19T11:26:38.117Z,98744.23
2023-02-19T11:29:40.919Z,98747.71
2023-02-19T11:32:43.663Z,98749.21
2023-02-19T11:35:48.172Z,98744.05
2023-02-19T11:38:50.995Z,98753.18
2023-02-19T11:42:49.637Z,98751.55
2023-02-19T11:46:14.091Z,98759.71
2023-02-19T11:49:44.225Z,98757.21
2023-02-19T11:53:02.241Z,98759.11
2023-02-19T11:56:16.816Z,98759.77
2023-02-19T11:59:31.774Z,98766.11
2023-02-19T12:03:00.431Z,98763.45
2023-02-19T12:06:15.375Z,98754.46
2023-02-19T12:09:27.153Z,98758.02
2023-02-19T12:13:04.538Z,98759.35
2023-02-19T12:16:25.080Z,98771.48
2023-02-19T12:19:43.994Z,98777.90
2023-02-19T12:23:05.570Z,98789.02
2023-02-19T12:26:22.998Z,98796.03
2023-02-19T12:30:13.243Z,98796.20
2023-02-19T12:33:37.948Z,98796.84
2023-02-19T12:37:01.074Z,98802.11
2023-02-19T12:40:22.888Z,98811.02
2023-02-19T12:43:25.951Z,98822.27
2023-02-19T12:46:36.058Z,98824.92
2023-02-19T12:49:47.556Z,98835.52
2023-02-19T12:52:55.244Z,98834.38
2023-02-19T12:56:00.563Z,98837.38
2023-02-19T12:59:15.873Z,98834.27
2023-02-19T13:02:38.871Z,98830.80
2023-02-19T13:05:54.385Z,98829.93
2023-02-19T13:09:06.632Z,98834.22
2023-02-19T13:12:21.241Z,98839.45
2023-02-19T13:15:46.335Z,98832.65
2023-02-19T13:18:54.276Z,98832.33
2023-02-19T13:22:40.063Z,98830.80
2023-02-19T13:26:00.064Z,98836.11
2023-02-19T13:29:54.101Z,98843.54
2023-02-19T13:33:02.685Z,98842.77
2023-02-19T13:36:25.864Z,98851.86
2023-02-19T13:39:31.008Z,98858.36
2023-02-19T13:42:36.326Z,98862.41
2023-02-19T13:45:46.223Z,98872.89
2023-02-19T13:49:08.994Z,98869.23
2023-02-19T13:52:30.133Z,98880.44
2023-02-19T13:55:42.962Z,98880.52
2023-02-19T13:59:13.463Z,98872.89
2023-02-19T14:02:22.400Z,98873.68
2023-02-19T14:06:03.119Z,98892.46
2023-02-19T14:09:35.574Z,98893.16
2023-02-19T14:12:38.578Z,98892.34
2023-02-19T14:15:49.560Z,98891.98
2023-02-19T14:18:52.761Z,98893.25
2023-02-19T14:21:55.571Z,98902.83
2023-02-19T14:24:58.825Z,98912.48
2023-02-19T14:28:19.366Z,98916.80
2023-02-19T14:31:29.515Z,98918.44
2023-02-19T14:34:33.373Z,98919.06
2023-02-19T14:37:36.233Z,98913.45
2023-02-19T14:40:43.332Z,98918.59
2023-02-19T14:43:49.716Z,98926.82
2023-02-19T14:46:57.932Z,98926.09
2023-02-19T14:50:35.149Z,98926.89
2023-02-19T14:53:42.687Z,98933.43
2023-02-19T14:56:51.075Z,98933.69
2023-02-19T15:00:02.342Z,98929.02
2023-02-19T15:03:06.750Z,98934.45
2023-02-19T15:06:17.600Z,98930.50
2023-02-19T15:09:22.054Z,98932.30
2023-02-19T15:12:28.909Z,98933.96
2023-02-19T15:15:35.074Z,98938.96
2023-02-19T15:18:38.221Z,98947.09
2023-02-19T15:21:46.140Z,98947.79
2023-02-19T15:24:49.248Z,98960.58
2023-02-19T15:27:52.339Z,98961.57
2023-02-19T15:30:59.074Z,98966.94
2023-02-19T15:34:02.285Z,98973.75
2023-02-19T15:37:09.656Z,98980.61
2023-02-19T15:40:14.926Z,98987.11
2023-02-19T15:43:25.981Z,98989.53
2023-02-19T15:46:29.436Z,98992.55
2023-02-19T15:49:54.047Z,99002.41
2023-02-19T15:53:14.225Z,99003.27
2023-02-19T15:56:32.143Z,99008.05
2023-02-19T15:59:39.389Z,99014.39
2023-02-19T16:02:42.581Z,99018.79
2023-02-19T16:05:46.306Z,99022.72
2023-02-19T16:08:51.982Z,99024.29
2023-02-19T16:11:58.002Z,99030.05
2023-02-19T16:15:12.393Z,99033.42
2023-02-19T16:18:15.556Z,99039.67
2023-02-19T16:21:22.918Z,99042.86
2023-02-19T16:24:33.811Z,99048.52
2023-02-19T16:27:40.086Z,99060.42
2023-02-19T16:30:43.104Z,99064.95
2023-02-19T16:33:49.865Z,99072.98
2023-02-19T16:36:52.796Z,99075.85
2023-02-19T16:40:07.602Z,99076.26
2023-02-19T16:43:37.688Z,99077.61
2023-02-19T16:46:41.039Z,99074.57
2023-02-19T16:49:44.373Z,99073.20
2023-02-19T16:52:58.373Z,99078.30
2023-02-19T16:56:01.357Z,99088.63
2023-02-19T16:59:05.135Z,99090.38
2023-02-19T17:02:15.115Z,99092.48
2023-02-19T17:05:19.929Z,99098.04
2023-02-19T17:08:31.246Z,99102.45
2023-02-19T17:11:34.819Z,99110.58
2023-02-19T17:14:37.614Z,99109.86
2023-02-19T17:17:41.081Z,99113.61
2023-02-19T17:20:49.821Z,99124.85
2023-02-19T17:23:54.073Z,99132.14
2023-02-19T17:26:56.842Z,99137.15
2023-02-19T17:29:59.601Z,99142.61
2023-02-19T17:33:02.669Z,99142.04
2023-02-19T17:36:06.367Z,99140.80
2023-02-19T17:39:15.237Z,99145.25
2023-02-19T17:42:18.887Z,99153.77
2023-02-19T17:45:22.016Z,99156.41
2023-02-19T17:48:24.824Z,99166.83
2023-02-19T17:51:28.032Z,99177.40
2023-02-19T17:54:30.774Z,99186.23
2023-02-19T17:57:33.900Z,99200.84
2023-02-19T18:00:37.470Z,99211.33
2023-02-19T18:03:40.273Z,99217.40
2023-02-19T18:06:43.347Z,99217.10
2023-02-19T18:09:46.237Z,99215.41
2023-02-19T18:12:49.653Z,99216.67
2023-02-19T18:15:53.672Z,99214.97
2023-02-19T18:18:58.348Z,99214.27
2023-02-19T18:22:01.405Z,99217.46
2023-02-19T18:25:04.287Z,99217.26
2023-02-19T18:28:07.796Z,99220.36
2023-02-19T18:31:11.052Z,99224.02
2023-02-19T18:34:18.922Z,99222.58
2023-02-19T18:37:23.678Z,99222.52
2023-02-19T18:40:26.709Z,99228.89
2023-02-19T18:43:29.439Z,99230.98
2023-02-19T18:46:32.437Z,99238.67
2023-02-19T18:49:35.780Z,99241.98
2023-02-19T18:52:38.810Z,99247.92
2023-02-19T18:55:41.795Z,99251.94
2023-02-19T18:58:44.572Z,99254.59
2023-02-19T19:01:47.461Z,99257.42
2023-02-19T19:04:54.212Z,99261.84
2023-02-19T19:07:59.346Z,99272.14
2023-02-19T19:11:02.438Z,99272.48
2023-02-19T19:14:05.537Z,99280.55
2023-02-19T19:17:08.604Z,99282.83
2023-02-19T19:20:11.737Z,99290.79
2023-02-19T19:23:14.503Z,99294.96
2023-02-19T19:26:17.853Z,99298.66
2023-02-19T19:29:22.174Z,99305.81
2023-02-19T19:32:25.058Z,99306.77
2023-02-19T19:35:28.710Z,99306.27
2023-02-19T19:38:31.537Z,99303.77
2023-02-19T19:41:34.794Z,99306.87
2023-02-19T19:44:37.695Z,99316.58
2023-02-19T19:47:40.495Z,99308.88
2023-02-19T19:50:43.255Z,99319.22
2023-02-19T19:53:49.682Z,99311.56
2023-02-19T19:56:52.419Z,99306.30
2023-02-19T19:59:55.275Z,99307.89
2023-02-19T20:02:58.363Z,99311.56
2023-02-19T20:06:01.554Z,99311.82
2023-02-19T20:09:04.305Z,99306.45
2023-02-19T20:12:07.721Z,99314.33
2023-02-19T20:15:11.527Z,99323.27
2023-02-19T20:18:14.323Z,99320.41
2023-02-19T20:21:17.624Z,99316.84
2023-02-19T20:24:24.391Z,99323.54
2023-02-19T20:27:27.242Z,99323.56
2023-02-19T20:30:30.018Z,99336.06
2023-02-19T20:33:33.386Z,99341.73
2023-02-19T20:36:45.437Z,99342.45
2023-02-19T20:39:48.173Z,99347.07
2023-02-19T20:42:50.950Z,99350.70
2023-02-19T20:45:53.693Z,99349.63
2023-02-19T20:48:57.020Z,99361.48
2023-02-19T20:52:02.788Z,99362.54
2023-02-19T20:55:06.172Z,99370.11
2023-02-19T20:58:09.000Z,99373.17
2023-02-19T21:01:12.184Z,99370.02
2023-02-19T21:04:15.154Z,99373.95
2023-02-19T21:07:17.921Z,99373.33
2023-02-19T21:10:20.768Z,99379.33
2023-02-19T21:13:23.735Z,99383.20
2023-02-19T21:16:28.154Z,99386.65
2023-02-19T21:19:30.909Z,99385.22
2023-02-19T21:22:33.725Z,99389.52
2023-02-19T21:25:36.498Z,99388.27
2023-02-19T21:28:40.715Z,99391.65
2023-02-19T21:31:46.769Z,99396.60
2023-02-19T21:34:49.569Z,99396.02
2023-02-19T21:37:52.322Z,99397.64
2023-02-19T21:40:55.256Z,99395.70
2023-02-19T21:43:58.264Z,99400.36
2023-02-19T21:47:01.179Z,99402.56
2023-02-19T21:50:04.424Z,99399.44
2023-02-19T21:53:07.425Z,99400.48
2023-02-19T21:56:10.891Z,99395.04
2023-02-19T21:59:13.961Z,99396.52
2023-02-19T22:02:19.916Z,99401.41
2023-02-19T22:05:24.483Z,99406.11
2023-02-19T22:08:27.216Z,99409.77
2023-02-19T22:11:30.023Z,99408.38
2023-02-19T22:14:32.756Z,99402.98
2023-02-19T22:17:35.489Z,99401.94
2023-02-19T22:20:39.587Z,99400.83
2023-02-19T22:23:50.702Z,99407.26
2023-02-19T22:26:58.009Z,99412.38
2023-02-19T22:30:00.887Z,99407.30
2023-02-19T22:33:03.897Z,99419.02
2023-02-19T22:36:14.747Z,99424.40
2023-02-19T22:39:23.362Z,99421.75
2023-02-19T22:42:26.192Z,99420.52
2023-02-19T22:45:28.882Z,99422.79
2023-02-19T22:48:31.677Z,99430.00
2023-02-19T22:51:35.734Z,99436.66
2023-02-19T22:54:39.634Z,99431.37
2023-02-19T22:57:42.472Z,99434.20
2023-02-19T23:00:45.211Z,99443.26
2023-02-19T23:04:05.936Z,99433.67
2023-02-19T23:07:09.342Z,99437.13
2023-02-19T23:10:13.312Z,99439.23
2023-02-19T23:13:16.193Z,99441.79
2023-02-19T23:16:19.516Z,99449.65
2023-02-19T23:19:23.298Z,99439.66
2023-02-19T23:22:26.334Z,99446.98
2023-02-19T23:25:29.090Z,99437.38
2023-02-19T23:28:31.869Z,99437.56
2023-02-19T23:31:34.869Z,99437.52
2023-02-19T23:34:37.744Z,99433.93
2023-02-19T23:37:40.475Z,99429.35
2023-02-19T23:40:43.401Z,99424.27
2023-02-19T23:43:46.227Z,99423.73
2023-02-19T23:46:49.615Z,99429.44
2023-02-19T23:49:52.586Z,99432.92
2023-02-19T23:52:56.959Z,99424.98
2023-02-19T23:55:59.849Z,99418.05
2023-02-19T23:59:02.644Z,99418.57
